Time,TemperatureF,DewpointF,PressureIn,WindDirection,WindDirectionDegrees,WindSpeedMPH,WindSpeedGustMPH,Humidity,HourlyPrecipIn,Conditions,Clouds,dailyrainin,SoftwareType,DateUTC
2013-03-06 10:00:00,34.3,32.5,29.65,SW,236,7.6,14.5,93,0.00,,SCT,0.00,VWS V14.01,2013-03-06 18:00:00,
2013-03-06 10:15:00,34.0,33.0,29.68,South,174,4.5,11.0,96,0.00,,SCT,0.00,VWS V14.01,2013-03-06 18:15:00,
2013-03-06 10:30:00,34.7,33.2,29.68,SE,139,11.0,11.0,94,0.07,,SCT,0.07,VWS V14.01,2013-03-06 18:30:00,
2013-03-06 10:45:00,35.6,33.0,29.68,WSW,257,0.0,11.0,90,0.07,,SCT,0.07,VWS V14.01,2013-03-06 18:45:00,
2013-03-06 10:51:00,34.3,31.4,29.65,WSW,256,8.1,8.1,89,0.00,,SCT,0.00,VWS V14.01,2013-03-06 18:51:00,
2013-03-06 10:52:00,34.3,31.4,29.65,WSW,256,8.1,8.1,89,0.00,,SCT,0.00,VWS V14.01,2013-03-06 18:52:00,
2013-03-06 10:53:00,34.3,31.4,29.65,SSW,201,7.2,8.7,89,0.00,,SCT,0.00,VWS V14.01,2013-03-06 18:53:00,
2013-03-06 10:58:00,34.3,32.3,29.65,SSE,151,3.1,14.5,92,0.00,,SCT,0.00,VWS V14.01,2013-03-06 18:58:00,
2013-03-06 11:00:00,38.1,25.5,29.68,West,278,7.6,12.3,60,0.13,,SCT,0.13,VWS V14.01,2013-03-06 19:00:00,
2013-03-06 11:03:00,34.2,32.6,29.65,SSW,201,4.0,8.7,94,0.00,,SCT,0.00,VWS V14.01,2013-03-06 19:03:00,
2013-03-06 11:09:00,34.0,33.0,29.65,South,171,4.9,10.1,96,0.00,,SCT,0.00,VWS V14.01,2013-03-06 19:09:00,
2013-03-06 11:14:00,34.0,33.0,29.68,SSE,148,8.1,11.0,96,0.00,,SCT,0.00,VWS V14.01,2013-03-06 19:14:00,
2013-03-06 11:15:00,39.2,23.5,29.71,WSW,256,3.6,12.8,53,0.13,,SCT,0.13,VWS V14.01,2013-03-06 19:15:00,
2013-03-06 11:19:00,34.0,33.0,29.68,SSE,151,10.1,11.0,96,0.00,,SCT,0.00,VWS V14.01,2013-03-06 19:19:00,
2013-03-06 11:24:00,34.2,32.9,29.68,South,184,2.7,11.0,95,0.00,,SCT,0.00,VWS V14.01,2013-03-06 19:24:00,
2013-03-06 11:29:00,34.5,33.0,29.68,South,183,9.2,11.0,94,0.07,,SCT,0.07,VWS V14.01,2013-03-06 19:29:00,
2013-03-06 11:30:00,38.8,23.2,29.71,NW,324,12.3,15.4,53,0.13,,SCT,0.13,VWS V14.01,2013-03-06 19:30:00,
2013-03-06 11:34:00,35.1,33.2,29.68,SE,135,5.4,11.0,93,0.07,,SCT,0.07,VWS V14.01,2013-03-06 19:34:00,
2013-03-06 11:39:00,35.2,33.2,29.68,SW,214,0.0,11.0,92,0.07,,SCT,0.07,VWS V14.01,2013-03-06 19:39:00,
2013-03-06 11:44:00,35.6,33.2,29.68,West,266,0.0,11.0,91,0.07,,SCT,0.07,VWS V14.01,2013-03-06 19:44:00,
2013-03-06 11:45:00,38.5,22.4,29.71,West,266,5.4,15.0,52,0.07,,SCT,0.13,VWS V14.01,2013-03-06 19:45:00,
2013-03-06 11:49:00,36.3,33.1,29.68,SSW,193,5.8,5.8,88,0.07,,SCT,0.07,VWS V14.01,2013-03-06 19:49:00,
2013-03-06 11:54:00,37.0,30.2,29.68,WNW,301,5.4,8.3,76,0.07,,SCT,0.07,VWS V14.01,2013-03-06 19:54:00,
2013-03-06 11:59:00,37.9,25.7,29.68,WSW,245,11.0,12.3,61,0.13,,SCT,0.13,VWS V14.01,2013-03-06 19:59:00,
2013-03-06 12:00:00,38.8,23.2,29.74,NW,320,3.6,15.4,53,0.07,,SCT,0.13,VWS V14.01,2013-03-06 20:00:00,
2013-03-06 12:04:00,38.5,24.6,29.68,West,270,8.1,12.8,57,0.13,,SCT,0.13,VWS V14.01,2013-03-06 20:04:00,
2013-03-06 12:10:00,38.8,25.8,29.71,SSW,195,6.3,12.8,59,0.13,,SCT,0.13,VWS V14.01,2013-03-06 20:10:00,
2013-03-06 12:15:00,39.2,23.5,29.71,South,188,7.6,12.8,53,0.13,,SCT,0.13,VWS V14.01,2013-03-06 20:15:00,
2013-03-06 12:20:00,39.2,24.4,29.71,NW,307,6.3,11.0,55,0.13,,SCT,0.13,VWS V14.01,2013-03-06 20:20:00,
2013-03-06 12:25:00,39.2,23.1,29.71,WNW,296,8.3,11.0,52,0.13,,SCT,0.13,VWS V14.01,2013-03-06 20:25:00,
2013-03-06 12:30:00,38.8,23.2,29.71,NW,306,11.0,12.3,53,0.07,,SCT,0.13,VWS V14.01,2013-03-06 20:30:00,
2013-03-06 12:35:00,38.8,23.2,29.71,West,267,6.3,15.0,53,0.07,,SCT,0.13,VWS V14.01,2013-03-06 20:35:00,
2013-03-06 12:40:00,38.7,23.0,29.71,West,266,5.4,15.0,53,0.07,,SCT,0.13,VWS V14.01,2013-03-06 20:40:00,
2013-03-06 12:45:00,38.5,22.4,29.71,WNW,288,7.2,7.2,52,0.07,,SCT,0.13,VWS V14.01,2013-03-06 20:45:00,
2013-03-06 12:50:00,38.7,23.0,29.71,NW,326,5.8,12.8,53,0.07,,SCT,0.13,VWS V14.01,2013-03-06 20:50:00,
2013-03-06 12:55:00,38.7,22.6,29.74,WNW,296,7.6,15.4,52,0.07,,SCT,0.13,VWS V14.01,2013-03-06 20:55:00,
2013-03-06 13:00:00,38.8,23.2,29.74,WSW,249,3.1,6.3,53,0.00,,SCT,0.13,VWS V14.01,2013-03-06 21:00:00,
2013-03-06 13:05:00,39.0,23.4,29.74,WNW,285,10.5,15.0,53,0.00,,SCT,0.13,VWS V14.01,2013-03-06 21:05:00,
2013-03-06 13:10:00,38.7,23.5,29.74,WNW,296,5.8,15.0,54,0.00,,SCT,0.13,VWS V14.01,2013-03-06 21:10:00,
2013-03-06 13:15:00,38.1,22.1,29.74,West,262,17.9,17.9,52,0.00,,SCT,0.13,VWS V14.01,2013-03-06 21:15:00,
2013-03-06 13:20:00,37.4,21.4,29.74,West,275,5.8,17.9,52,0.00,,SCT,0.13,VWS V14.01,2013-03-06 21:20:00,
2013-03-06 13:25:00,37.0,20.6,29.74,WNW,302,7.6,17.9,51,0.00,,SCT,0.13,VWS V14.01,2013-03-06 21:25:00,
2013-03-06 13:30:00,37.0,21.1,29.74,WNW,292,3.6,10.1,52,0.00,,SCT,0.13,VWS V14.01,2013-03-06 21:30:00,
2013-03-06 13:36:00,37.0,21.5,29.74,West,272,5.4,14.1,53,0.00,,SCT,0.13,VWS V14.01,2013-03-06 21:36:00,
2013-03-06 13:41:00,36.9,21.3,29.74,NNW,343,6.3,14.1,53,0.00,,SCT,0.13,VWS V14.01,2013-03-06 21:41:00,
2013-03-06 13:45:00,36.3,20.8,29.77,SSW,210,5.4,11.9,53,0.00,,SCT,0.13,VWS V14.01,2013-03-06 21:45:00,
2013-03-06 13:46:00,36.9,21.8,29.74,WSW,242,0.0,10.1,54,0.00,,SCT,0.13,VWS V14.01,2013-03-06 21:46:00,
2013-03-06 13:51:00,36.9,21.8,29.74,West,278,7.2,10.1,54,0.00,,SCT,0.13,VWS V14.01,2013-03-06 21:51:00,
2013-03-06 13:56:00,36.9,21.8,29.77,West,267,6.3,10.1,54,0.00,,SCT,0.13,VWS V14.01,2013-03-06 21:56:00,
2013-03-06 14:00:00,36.5,21.5,29.77,WNW,283,5.8,11.0,54,0.00,,SCT,0.13,VWS V14.01,2013-03-06 22:00:00,
2013-03-06 14:01:00,36.7,20.7,29.77,SSW,204,11.0,11.0,52,0.00,,SCT,0.13,VWS V14.01,2013-03-06 22:01:00,
2013-03-06 14:06:00,36.3,20.8,29.77,South,187,5.4,13.2,53,0.00,,SCT,0.13,VWS V14.01,2013-03-06 22:06:00,
2013-03-06 14:11:00,36.3,20.4,29.77,SSW,198,3.6,13.2,52,0.00,,SCT,0.13,VWS V14.01,2013-03-06 22:11:00,
2013-03-06 14:15:00,36.7,21.2,29.80,SSW,193,5.4,12.8,53,0.00,,SCT,0.13,VWS V14.01,2013-03-06 22:15:00,
2013-03-06 14:16:00,36.3,19.5,29.77,WSW,256,4.5,9.6,50,0.00,,SCT,0.13,VWS V14.01,2013-03-06 22:16:00,
2013-03-06 14:21:00,36.5,20.1,29.77,NNW,331,3.1,9.6,51,0.00,,SCT,0.13,VWS V14.01,2013-03-06 22:21:00,
2013-03-06 14:26:00,36.7,19.8,29.77,SW,218,5.8,9.6,50,0.00,,SCT,0.13,VWS V14.01,2013-03-06 22:26:00,
2013-03-06 14:30:00,36.9,21.3,29.80,East,92,7.6,10.1,53,0.00,,SCT,0.13,VWS V14.01,2013-03-06 22:30:00,
2013-03-06 14:31:00,36.5,19.2,29.77,SSE,149,11.9,11.9,49,0.00,,SCT,0.13,VWS V14.01,2013-03-06 22:31:00,
2013-03-06 14:36:00,36.3,19.0,29.77,SW,225,3.1,11.9,49,0.00,,SCT,0.13,VWS V14.01,2013-03-06 22:36:00,
2013-03-06 14:41:00,36.3,19.9,29.77,WNW,292,6.3,11.9,51,0.00,,SCT,0.13,VWS V14.01,2013-03-06 22:41:00,
2013-03-06 14:45:00,36.3,20.8,29.80,SSE,147,6.3,11.4,53,0.00,,SCT,0.13,VWS V14.01,2013-03-06 22:45:00,
2013-03-06 14:47:00,36.3,20.8,29.77,SSW,192,2.7,5.4,53,0.00,,SCT,0.13,VWS V14.01,2013-03-06 22:47:00,
2013-03-06 14:52:00,36.3,21.3,29.77,WNW,293,5.8,8.3,54,0.00,,SCT,0.13,VWS V14.01,2013-03-06 22:52:00,
2013-03-06 14:57:00,36.5,21.5,29.77,NNW,335,3.6,11.0,54,0.00,,SCT,0.13,VWS V14.01,2013-03-06 22:57:00,
2013-03-06 15:00:00,36.3,19.9,29.80,SW,229,7.6,14.1,51,0.00,,SCT,0.13,VWS V14.01,2013-03-06 23:00:00,
2013-03-06 15:02:00,36.5,20.6,29.77,South,173,4.0,8.7,52,0.00,,SCT,0.13,VWS V14.01,2013-03-06 23:02:00,
2013-03-06 15:07:00,36.7,21.2,29.77,West,259,4.9,9.6,53,0.00,,SCT,0.13,VWS V14.01,2013-03-06 23:07:00,
2013-03-06 15:12:00,36.7,21.2,29.80,WSW,252,5.8,12.8,53,0.00,,SCT,0.13,VWS V14.01,2013-03-06 23:12:00,
2013-03-06 15:15:00,36.3,18.5,29.83,SSW,200,8.1,15.0,48,0.00,,SCT,0.13,VWS V14.01,2013-03-06 23:15:00,
2013-03-06 15:17:00,36.7,21.2,29.80,WNW,286,5.4,8.3,53,0.00,,SCT,0.13,VWS V14.01,2013-03-06 23:17:00,
2013-03-06 15:22:00,36.9,21.8,29.80,SE,140,3.6,8.3,54,0.00,,SCT,0.13,VWS V14.01,2013-03-06 23:22:00,
2013-03-06 15:27:00,36.9,21.3,29.80,South,191,8.1,10.1,53,0.00,,SCT,0.13,VWS V14.01,2013-03-06 23:27:00,
2013-03-06 15:30:00,35.8,19.9,29.83,SW,216,8.3,13.2,52,0.00,,SCT,0.13,VWS V14.01,2013-03-06 23:30:00,
2013-03-06 15:32:00,36.9,21.8,29.80,SSW,193,7.2,8.7,54,0.00,,SCT,0.13,VWS V14.01,2013-03-06 23:32:00,
2013-03-06 15:37:00,36.7,21.2,29.80,South,185,8.1,10.5,53,0.00,,SCT,0.13,VWS V14.01,2013-03-06 23:37:00,
2013-03-06 15:42:00,36.5,21.0,29.80,South,179,6.3,11.4,53,0.00,,SCT,0.13,VWS V14.01,2013-03-06 23:42:00,
2013-03-06 15:45:00,35.8,20.3,29.83,South,176,4.9,11.0,53,0.00,,SCT,0.13,VWS V14.01,2013-03-06 23:45:00,
2013-03-06 15:47:00,36.3,20.4,29.80,South,178,3.6,14.1,52,0.00,,SCT,0.13,VWS V14.01,2013-03-06 23:47:00,
2013-03-06 15:52:00,36.3,21.3,29.80,WSW,250,3.6,14.1,54,0.00,,SCT,0.13,VWS V14.01,2013-03-06 23:52:00,
2013-03-06 15:58:00,36.3,19.9,29.80,West,262,10.1,14.1,51,0.00,,SCT,0.13,VWS V14.01,2013-03-06 23:58:00,
2013-03-06 16:00:00,35.6,21.0,29.83,WSW,237,5.8,8.1,55,0.00,,SCT,0.13,VWS V14.01,2013-03-07 00:00:00,
2013-03-06 16:03:00,36.3,19.9,29.80,South,186,4.0,10.1,51,0.00,,SCT,0.13,VWS V14.01,2013-03-07 00:03:00,
2013-03-06 16:08:00,36.3,19.5,29.80,SSE,148,6.3,15.0,50,0.00,,SCT,0.13,VWS V14.01,2013-03-07 00:08:00,
2013-03-06 16:13:00,36.3,19.5,29.83,SSE,147,5.8,15.0,50,0.00,,SCT,0.13,VWS V14.01,2013-03-07 00:13:00,
2013-03-06 16:15:00,35.1,22.2,29.83,South,176,3.1,10.5,59,0.00,,SCT,0.13,VWS V14.01,2013-03-07 00:15:00,
2013-03-06 16:18:00,36.3,18.0,29.83,SW,223,5.4,10.1,47,0.00,,SCT,0.13,VWS V14.01,2013-03-07 00:18:00,
2013-03-06 16:23:00,36.3,18.5,29.83,SW,224,3.1,10.1,48,0.00,,SCT,0.13,VWS V14.01,2013-03-07 00:23:00,
2013-03-06 16:28:00,35.8,19.4,29.83,SSW,199,7.6,13.2,51,0.00,,SCT,0.13,VWS V14.01,2013-03-07 00:28:00,
2013-03-06 16:30:00,34.7,21.9,29.83,WSW,254,5.8,8.7,59,0.00,,SCT,0.13,VWS V14.01,2013-03-07 00:30:00,
2013-03-06 16:33:00,35.6,20.2,29.83,SW,232,0.0,10.5,53,0.00,,SCT,0.13,VWS V14.01,2013-03-07 00:33:00,
2013-03-06 16:38:00,35.6,19.7,29.83,WSW,252,5.4,11.0,52,0.00,,SCT,0.13,VWS V14.01,2013-03-07 00:38:00,
2013-03-06 16:43:00,35.6,20.2,29.83,SE,142,5.8,11.0,53,0.00,,SCT,0.13,VWS V14.01,2013-03-07 00:43:00,
2013-03-06 16:45:00,34.3,21.5,29.85,South,182,5.4,11.0,59,0.00,,SCT,0.13,VWS V14.01,2013-03-07 00:45:00,
2013-03-06 16:48:00,35.8,20.3,29.83,SW,233,3.6,8.1,53,0.00,,SCT,0.13,VWS V14.01,2013-03-07 00:48:00,
2013-03-06 16:53:00,35.6,20.6,29.83,West,261,4.0,8.1,54,0.00,,SCT,0.13,VWS V14.01,2013-03-07 00:53:00,
2013-03-06 16:58:00,35.6,21.0,29.83,SW,235,4.0,8.1,55,0.00,,SCT,0.13,VWS V14.01,2013-03-07 00:58:00,
2013-03-06 17:00:00,34.0,21.2,29.85,SW,217,8.1,11.0,59,0.00,,SCT,0.13,VWS V14.01,2013-03-07 01:00:00,
2013-03-06 17:03:00,35.6,21.5,29.83,South,188,3.6,8.1,56,0.00,,SCT,0.13,VWS V14.01,2013-03-07 01:03:00,
2013-03-06 17:08:00,35.4,21.7,29.83,WSW,258,5.4,10.5,57,0.00,,SCT,0.13,VWS V14.01,2013-03-07 01:08:00,
2013-03-06 17:13:00,35.2,22.0,29.83,South,177,4.9,10.5,58,0.00,,SCT,0.13,VWS V14.01,2013-03-07 01:13:00,
2013-03-06 17:15:00,33.3,23.1,29.85,SE,136,7.2,12.8,66,0.00,,SCT,0.13,VWS V14.01,2013-03-07 01:15:00,
2013-03-06 17:18:00,35.1,22.2,29.83,West,268,5.8,8.3,59,0.00,,SCT,0.13,VWS V14.01,2013-03-07 01:18:00,
2013-03-06 17:23:00,34.9,22.4,29.83,SSW,200,4.0,8.3,60,0.00,,SCT,0.13,VWS V14.01,2013-03-07 01:23:00,
2013-03-06 17:28:00,34.9,22.4,29.83,WSW,249,3.6,8.7,60,0.00,,SCT,0.13,VWS V14.01,2013-03-07 01:28:00,
2013-03-06 17:30:00,32.5,25.2,29.85,South,177,5.4,10.1,74,0.00,,SCT,0.13,VWS V14.01,2013-03-07 01:30:00,
2013-03-06 17:33:00,34.5,22.1,29.83,SW,231,2.7,6.3,60,0.00,,SCT,0.13,VWS V14.01,2013-03-07 01:33:00,
2013-03-06 17:39:00,34.5,22.1,29.85,WSW,244,7.2,7.2,60,0.00,,SCT,0.13,VWS V14.01,2013-03-07 01:39:00,
2013-03-06 17:44:00,34.3,21.5,29.85,SSE,164,6.3,11.0,59,0.00,,SCT,0.13,VWS V14.01,2013-03-07 01:44:00,
2013-03-06 17:45:00,32.2,25.5,29.88,SSW,200,8.3,9.2,76,0.00,,SCT,0.13,VWS V14.01,2013-03-07 01:45:00,
2013-03-06 17:49:00,34.2,21.3,29.85,South,187,8.3,8.7,59,0.00,,SCT,0.13,VWS V14.01,2013-03-07 01:49:00,
2013-03-06 17:54:00,34.2,21.3,29.85,SSE,147,5.8,9.6,59,0.00,,SCT,0.13,VWS V14.01,2013-03-07 01:54:00,
2013-03-06 17:59:00,34.0,21.2,29.85,SSW,205,6.3,11.0,59,0.00,,SCT,0.13,VWS V14.01,2013-03-07 01:59:00,
2013-03-06 18:00:00,31.8,27.0,29.88,SW,215,5.4,11.0,82,0.00,,SCT,0.13,VWS V14.01,2013-03-07 02:00:00,
2013-03-06 18:04:00,33.8,21.4,29.85,South,190,8.3,11.0,60,0.00,,SCT,0.13,VWS V14.01,2013-03-07 02:04:00,
2013-03-06 18:09:00,33.6,22.4,29.85,SSW,210,5.4,12.8,63,0.00,,SCT,0.13,VWS V14.01,2013-03-07 02:09:00,
2013-03-06 18:14:00,33.3,23.1,29.85,South,189,8.1,12.8,66,0.00,,SCT,0.13,VWS V14.01,2013-03-07 02:14:00,
2013-03-06 18:15:00,31.1,27.4,29.88,SSE,149,5.4,10.5,86,0.00,,SCT,0.13,VWS V14.01,2013-03-07 02:15:00,
2013-03-06 18:19:00,33.1,24.4,29.85,South,176,3.1,8.3,70,0.00,,SCT,0.13,VWS V14.01,2013-03-07 02:19:00,
2013-03-06 18:24:00,32.7,24.7,29.85,South,176,3.6,8.3,72,0.00,,SCT,0.13,VWS V14.01,2013-03-07 02:24:00,
2013-03-06 18:29:00,32.5,24.9,29.85,SE,145,6.3,10.1,73,0.00,,SCT,0.13,VWS V14.01,2013-03-07 02:29:00,
2013-03-06 18:30:00,31.3,25.8,29.88,SW,226,5.8,9.6,80,0.00,,SCT,0.13,VWS V14.01,2013-03-07 02:30:00,
2013-03-06 18:34:00,32.4,25.3,29.85,SSE,161,4.0,8.1,75,0.00,,SCT,0.13,VWS V14.01,2013-03-07 02:34:00,
2013-03-06 18:39:00,32.2,25.2,29.88,SSE,158,7.6,9.2,75,0.00,,SCT,0.13,VWS V14.01,2013-03-07 02:39:00,
2013-03-06 18:44:00,32.2,25.5,29.88,South,178,7.6,9.2,76,0.00,,SCT,0.13,VWS V14.01,2013-03-07 02:44:00,
2013-03-06 18:45:00,31.1,24.4,29.88,SSE,149,6.3,10.5,76,0.00,,SCT,0.13,VWS V14.01,2013-03-07 02:45:00,
2013-03-06 18:49:00,32.2,26.1,29.88,SSW,203,5.4,8.3,78,0.00,,SCT,0.13,VWS V14.01,2013-03-07 02:49:00,
2013-03-06 18:54:00,32.0,26.2,29.88,South,176,5.4,11.0,79,0.00,,SCT,0.13,VWS V14.01,2013-03-07 02:54:00,
2013-03-06 19:00:00,31.8,27.0,29.88,SW,215,5.4,11.0,82,0.00,,SCT,0.13,VWS V14.01,2013-03-07 03:00:00,
2013-03-06 19:05:00,31.5,27.5,29.88,SSE,168,5.4,8.7,85,0.00,,SCT,0.13,VWS V14.01,2013-03-07 03:05:00,
2013-03-06 19:10:00,31.3,27.6,29.88,South,186,3.1,8.7,86,0.00,,SCT,0.13,VWS V14.01,2013-03-07 03:10:00,
2013-03-06 19:15:00,31.3,27.3,29.88,South,188,5.8,6.3,85,0.00,,SCT,0.13,VWS V14.01,2013-03-07 03:15:00,
2013-03-06 19:20:00,31.3,26.7,29.88,SSE,158,8.7,8.7,83,0.00,,SCT,0.13,VWS V14.01,2013-03-07 03:20:00,
2013-03-06 19:25:00,31.3,26.4,29.88,SSW,208,3.6,8.7,82,0.00,,SCT,0.13,VWS V14.01,2013-03-07 03:25:00,
2013-03-06 19:30:00,31.3,25.5,29.88,WSW,238,6.3,6.3,79,0.00,,SCT,0.13,VWS V14.01,2013-03-07 03:30:00,
2013-03-06 19:35:00,31.3,25.2,29.88,South,175,7.6,10.5,78,0.00,,SCT,0.13,VWS V14.01,2013-03-07 03:35:00,
2013-03-06 19:40:00,31.3,24.6,29.88,West,281,4.9,10.5,76,0.00,,SCT,0.13,VWS V14.01,2013-03-07 03:40:00,
2013-03-06 19:45:00,30.2,23.6,29.91,South,190,0.0,6.3,76,0.00,,SCT,0.13,VWS V14.01,2013-03-07 03:45:00,
2013-03-06 19:46:00,31.1,24.4,29.88,WSW,247,4.5,8.3,76,0.00,,SCT,0.13,VWS V14.01,2013-03-07 03:46:00,
2013-03-06 19:51:00,31.1,24.4,29.88,South,169,4.0,8.3,76,0.00,,SCT,0.13,VWS V14.01,2013-03-07 03:51:00,
2013-03-06 19:56:00,30.9,24.3,29.88,South,178,3.6,8.3,76,0.00,,SCT,0.13,VWS V14.01,2013-03-07 03:56:00,
2013-03-06 20:00:00,30.0,22.8,29.91,SE,146,0.0,8.3,74,0.00,,SCT,0.13,VWS V14.01,2013-03-07 04:00:00,
2013-03-06 20:01:00,30.7,24.1,29.88,SSE,151,3.6,4.9,76,0.00,,SCT,0.13,VWS V14.01,2013-03-07 04:01:00,
2013-03-06 20:06:00,30.7,23.8,29.88,SE,141,5.4,7.6,75,0.00,,SCT,0.13,VWS V14.01,2013-03-07 04:06:00,
2013-03-06 20:11:00,30.7,23.8,29.91,SE,146,5.8,7.6,75,0.00,,SCT,0.13,VWS V14.01,2013-03-07 04:11:00,
2013-03-06 20:15:00,29.8,22.6,29.91,West,274,5.8,11.4,74,0.00,,SCT,0.13,VWS V14.01,2013-03-07 04:15:00,
2013-03-06 20:16:00,30.7,23.5,29.91,SW,224,0.0,0.0,74,0.00,,SCT,0.13,VWS V14.01,2013-03-07 04:16:00,
2013-03-06 20:21:00,30.7,23.8,29.91,NW,322,0.0,4.0,75,0.00,,SCT,0.13,VWS V14.01,2013-03-07 04:21:00,
2013-03-06 20:26:00,30.7,23.8,29.91,NNE,24,0.0,6.3,75,0.00,,SCT,0.13,VWS V14.01,2013-03-07 04:26:00,
2013-03-06 20:30:00,30.0,22.4,29.91,SSE,161,2.7,8.7,73,0.00,,SCT,0.13,VWS V14.01,2013-03-07 04:30:00,
2013-03-06 20:31:00,30.6,23.6,29.91,NW,305,2.7,4.0,75,0.00,,SCT,0.13,VWS V14.01,2013-03-07 04:31:00,
2013-03-06 20:36:00,30.4,23.4,29.91,ESE,103,2.7,5.4,75,0.00,,SCT,0.13,VWS V14.01,2013-03-07 04:36:00,
2013-03-06 20:41:00,30.4,23.4,29.91,SW,235,0.0,6.3,75,0.00,,SCT,0.13,VWS V14.01,2013-03-07 04:41:00,
2013-03-06 20:45:00,29.8,22.6,29.91,SSW,203,5.8,8.7,74,0.00,,SCT,0.13,VWS V14.01,2013-03-07 04:45:00,
2013-03-06 20:46:00,30.2,23.2,29.91,SSE,166,3.6,7.6,75,0.00,,SCT,0.13,VWS V14.01,2013-03-07 04:46:00,
2013-03-06 20:51:00,30.2,23.2,29.91,SSE,158,6.3,8.3,75,0.00,,SCT,0.13,VWS V14.01,2013-03-07 04:51:00,
2013-03-06 20:57:00,30.0,22.8,29.91,WSW,255,3.6,8.3,74,0.00,,SCT,0.13,VWS V14.01,2013-03-07 04:57:00,
2013-03-06 21:00:00,30.0,22.8,29.91,WSW,255,0.0,8.3,74,0.00,,SCT,0.13,VWS V14.01,2013-03-07 05:00:00,
2013-03-06 21:01:00,30.0,22.8,29.91,South,172,8.1,8.7,74,0.00,,SCT,0.13,VWS V14.01,2013-03-07 05:01:00,
2013-03-06 21:06:00,29.8,22.6,29.91,East,90,3.6,10.1,74,0.00,,SCT,0.13,VWS V14.01,2013-03-07 05:06:00,
2013-03-06 21:11:00,29.8,22.6,29.91,SSE,158,7.6,11.4,74,0.00,,SCT,0.13,VWS V14.01,2013-03-07 05:11:00,
2013-03-06 21:15:00,29.7,22.1,29.94,SSE,154,5.8,8.1,73,0.00,,SCT,0.13,VWS V14.01,2013-03-07 05:15:00,
2013-03-06 21:16:00,29.8,22.6,29.91,West,259,2.7,5.8,74,0.00,,SCT,0.13,VWS V14.01,2013-03-07 05:16:00,
2013-03-06 21:21:00,29.8,22.2,29.91,SSW,210,3.1,8.1,73,0.00,,SCT,0.13,VWS V14.01,2013-03-07 05:21:00,
2013-03-06 21:27:00,30.0,22.4,29.91,ESE,119,0.0,8.1,73,0.00,,SCT,0.13,VWS V14.01,2013-03-07 05:27:00,
2013-03-06 21:30:00,29.5,21.9,29.94,SSE,163,4.9,8.7,73,0.00,,SCT,0.13,VWS V14.01,2013-03-07 05:30:00,
2013-03-06 21:32:00,30.0,22.4,29.91,SSW,211,4.0,4.9,73,0.00,,SCT,0.13,VWS V14.01,2013-03-07 05:32:00,
2013-03-06 21:37:00,29.8,22.2,29.91,West,276,5.4,8.7,73,0.00,,SCT,0.13,VWS V14.01,2013-03-07 05:37:00,
2013-03-06 21:42:00,29.8,22.6,29.91,SSE,148,5.4,8.7,74,0.00,,SCT,0.13,VWS V14.01,2013-03-07 05:42:00,
2013-03-06 21:45:00,29.7,21.1,29.94,South,187,5.8,5.8,70,0.00,,SCT,0.13,VWS V14.01,2013-03-07 05:45:00,
2013-03-06 21:47:00,29.8,22.2,29.91,SSW,198,7.6,7.6,73,0.00,,SCT,0.13,VWS V14.01,2013-03-07 05:47:00,
2013-03-06 21:52:00,29.8,22.2,29.91,SSE,162,3.1,7.6,73,0.00,,SCT,0.13,VWS V14.01,2013-03-07 05:52:00,
2013-03-06 21:57:00,29.8,22.2,29.91,South,186,4.9,10.5,73,0.00,,SCT,0.13,VWS V14.01,2013-03-07 05:57:00,
2013-03-06 22:00:00,29.5,20.9,29.94,SSE,168,0.0,6.3,70,0.00,,SCT,0.13,VWS V14.01,2013-03-07 06:00:00,
2013-03-06 22:02:00,29.8,22.2,29.91,South,176,6.3,6.3,73,0.00,,SCT,0.13,VWS V14.01,2013-03-07 06:02:00,
2013-03-06 22:07:00,29.8,21.9,29.91,South,191,3.6,8.1,72,0.00,,SCT,0.13,VWS V14.01,2013-03-07 06:07:00,
2013-03-06 22:12:00,29.7,22.1,29.94,SSW,207,5.8,8.1,73,0.00,,SCT,0.13,VWS V14.01,2013-03-07 06:12:00,
2013-03-06 22:15:00,29.5,20.6,29.94,South,189,4.0,8.1,69,0.00,,SCT,0.13,VWS V14.01,2013-03-07 06:15:00,
2013-03-06 22:17:00,29.5,22.2,29.94,SW,214,5.4,7.6,74,0.00,,SCT,0.13,VWS V14.01,2013-03-07 06:17:00,
2013-03-06 22:22:00,29.5,22.2,29.94,SSE,164,4.0,8.7,74,0.00,,SCT,0.13,VWS V14.01,2013-03-07 06:22:00,
2013-03-06 22:27:00,29.5,21.9,29.94,West,271,5.8,8.7,73,0.00,,SCT,0.13,VWS V14.01,2013-03-07 06:27:00,
2013-03-06 22:30:00,29.3,20.8,29.94,SE,130,3.6,8.1,70,0.00,,SCT,0.13,VWS V14.01,2013-03-07 06:30:00,
2013-03-06 22:32:00,29.7,21.8,29.94,SW,235,3.1,5.4,72,0.00,,SCT,0.13,VWS V14.01,2013-03-07 06:32:00,
2013-03-06 22:37:00,29.5,21.6,29.94,SW,222,5.4,5.4,72,0.00,,SCT,0.13,VWS V14.01,2013-03-07 06:37:00,
2013-03-06 22:42:00,29.7,21.4,29.94,WSW,239,0.0,5.8,71,0.00,,SCT,0.13,VWS V14.01,2013-03-07 06:42:00,
2013-03-06 22:45:00,28.9,20.4,29.94,SSE,160,5.8,11.0,70,0.00,,SCT,0.13,VWS V14.01,2013-03-07 06:45:00,
2013-03-06 22:47:00,29.7,21.1,29.94,SSE,164,3.6,5.8,70,0.00,,SCT,0.13,VWS V14.01,2013-03-07 06:47:00,
2013-03-06 22:53:00,29.7,20.8,29.94,ESE,114,5.4,5.8,69,0.00,,SCT,0.13,VWS V14.01,2013-03-07 06:53:00,
2013-03-06 22:58:00,29.5,20.9,29.94,SE,133,4.9,6.3,70,0.00,,SCT,0.13,VWS V14.01,2013-03-07 06:58:00,
2013-03-06 23:00:00,29.5,20.9,100.00,SSE,168,0.0,6.3,70,0.00,,SCT,0.13,VWS V14.01,2013-03-07 07:00:00,
2013-03-06 23:03:00,29.5,20.9,29.94,SE,141,6.3,6.3,70,0.00,,SCT,0.13,VWS V14.01,2013-03-07 07:03:00,
2013-03-06 23:08:00,29.5,20.9,29.94,SSE,153,2.7,6.3,70,0.00,,SCT,0.13,VWS V14.01,2013-03-07 07:08:00,
2013-03-06 23:13:00,29.5,20.6,29.94,SSW,199,5.4,8.1,69,0.00,,SCT,0.13,VWS V14.01,2013-03-07 07:13:00,
2013-03-06 23:15:00,28.8,19.9,29.94,SSE,154,5.8,10.1,69,0.00,,SCT,0.00,VWS V14.01,2013-03-07 07:15:00,
2013-03-06 23:18:00,29.5,20.6,29.94,SSW,201,6.3,7.6,69,0.00,,SCT,0.13,VWS V14.01,2013-03-07 07:18:00,
2013-03-06 23:23:00,29.5,20.6,29.94,SSW,199,0.0,7.6,69,0.00,,SCT,0.13,VWS V14.01,2013-03-07 07:23:00,
2013-03-06 23:28:00,29.3,20.4,29.94,SSE,156,3.6,8.1,69,0.00,,SCT,0.13,VWS V14.01,2013-03-07 07:28:00,
2013-03-06 23:30:00,28.6,20.4,29.94,SSE,156,5.4,10.1,71,0.00,,SCT,0.00,VWS V14.01,2013-03-07 07:30:00,
2013-03-06 23:33:00,29.3,20.7,29.94,South,184,5.8,7.6,70,0.00,,SCT,0.13,VWS V14.01,2013-03-07 07:33:00,
2013-03-06 23:38:00,29.1,20.6,29.94,SSW,210,5.4,8.1,70,0.00,,SCT,0.13,VWS V14.01,2013-03-07 07:38:00,
2013-03-06 23:43:00,28.9,20.4,29.94,South,185,4.0,11.0,70,0.00,,SCT,0.13,VWS V14.01,2013-03-07 07:43:00,
2013-03-06 23:45:00,28.6,20.7,29.97,SSE,165,10.5,10.5,72,0.00,,SCT,0.00,VWS V14.01,2013-03-07 07:45:00,
2013-03-06 23:49:00,28.9,20.1,29.94,SSW,210,5.8,8.7,69,0.00,,SCT,0.13,VWS V14.01,2013-03-07 07:49:00,
2013-03-06 23:54:00,28.9,20.1,29.94,SSE,152,4.0,10.1,69,0.00,,SCT,0.13,VWS V14.01,2013-03-07 07:54:00,
2013-03-06 23:59:00,28.9,20.1,29.94,SSE,153,5.4,10.1,69,0.00,,SCT,0.13,VWS V14.01,2013-03-07 07:59:00,